createdAt,value
2019-03-18T00:01:44.753Z,2.03
2019-03-18T00:04:11.266Z,1.60
2019-03-18T00:06:37.939Z,2.73
2019-03-18T00:09:08.401Z,2.67
2019-03-18T00:11:34.925Z,1.90
2019-03-18T00:14:01.604Z,3.40
2019-03-18T00:16:28.104Z,3.63
2019-03-18T00:18:54.608Z,1.13
2019-03-18T00:21:21.293Z,1.10
2019-03-18T00:23:50.823Z,2.57
2019-03-18T00:26:17.347Z,3.03
2019-03-18T00:32:24.041Z,2.00
2019-03-18T00:34:50.501Z,1.13
2019-03-18T00:37:16.977Z,1.67
2019-03-18T00:39:43.532Z,0.90
2019-03-18T00:42:10.006Z,1.23
2019-03-18T00:45:31.962Z,2.07
2019-03-18T00:47:59.829Z,1.30
2019-03-18T00:50:26.360Z,0.83
2019-03-18T00:56:33.333Z,1.10
2019-03-18T00:59:00.152Z,1.37
2019-03-18T01:01:26.737Z,1.80
2019-03-18T01:04:11.956Z,1.77
2019-03-18T01:06:38.564Z,1.00
2019-03-18T01:09:05.413Z,0.83
2019-03-18T01:11:31.896Z,0.90
2019-03-18T01:13:58.425Z,1.77
2019-03-18T01:16:24.945Z,1.57
2019-03-18T01:18:51.583Z,1.30
2019-03-18T01:21:18.539Z,0.90
2019-03-18T01:23:47.319Z,1.40
2019-03-18T01:26:13.846Z,1.17
2019-03-18T01:28:40.345Z,1.60
2019-03-18T01:31:09.243Z,1.63
2019-03-18T01:33:35.739Z,2.13
2019-03-18T01:36:02.244Z,2.57
2019-03-18T01:38:32.111Z,1.93
2019-03-18T01:41:01.461Z,1.73
2019-03-18T01:43:28.089Z,1.23
2019-03-18T01:49:34.515Z,2.30
2019-03-18T01:52:01.667Z,1.80
2019-03-18T01:54:28.174Z,1.83
2019-03-18T01:56:54.711Z,1.67
2019-03-18T01:59:21.806Z,1.50
2019-03-18T02:01:50.615Z,1.63
2019-03-18T02:04:17.148Z,2.30
2019-03-18T02:06:43.705Z,2.47
2019-03-18T02:09:13.088Z,2.83
2019-03-18T02:11:39.624Z,0.90
2019-03-18T02:14:08.081Z,2.10
2019-03-18T02:17:29.882Z,3.47
2019-03-18T02:19:57.906Z,1.67
2019-03-18T02:22:24.719Z,2.50
2019-03-18T02:24:51.206Z,5.53
2019-03-18T02:27:17.733Z,4.17
2019-03-18T02:29:44.218Z,1.67
2019-03-18T02:32:10.747Z,1.20
2019-03-18T02:34:39.872Z,3.87
2019-03-18T02:37:06.777Z,2.73
2019-03-18T02:43:13.484Z,1.63
2019-03-18T02:45:39.998Z,2.67
2019-03-18T02:48:07.460Z,2.33
2019-03-18T02:54:14.170Z,2.30
2019-03-18T02:56:40.727Z,1.97
2019-03-18T02:59:07.870Z,1.57
2019-03-18T03:01:34.490Z,1.43
2019-03-18T03:04:01.255Z,2.80
2019-03-18T03:06:30.698Z,1.27
2019-03-18T03:08:59.291Z,1.30
2019-03-18T03:11:28.418Z,1.47
2019-03-18T03:17:38.222Z,1.80
2019-03-18T03:20:04.902Z,1.03
2019-03-18T03:23:01.244Z,1.63
2019-03-18T03:25:31.034Z,2.60
2019-03-18T03:27:57.576Z,3.17
2019-03-18T03:30:24.175Z,2.40
2019-03-18T03:32:57.968Z,1.20
2019-03-18T03:35:24.919Z,3.33
2019-03-18T03:37:52.030Z,2.33
2019-03-18T03:40:19.667Z,2.23
2019-03-18T03:42:46.470Z,1.10
2019-03-18T03:45:13.536Z,1.77
2019-03-18T03:47:58.867Z,1.40
2019-03-18T03:50:27.597Z,2.40
2019-03-18T03:52:54.811Z,2.93
2019-03-18T03:55:21.746Z,1.77
2019-03-18T03:57:49.700Z,4.20
2019-03-18T04:03:59.171Z,4.37
2019-03-18T04:06:27.430Z,2.03
2019-03-18T04:12:34.293Z,3.40
2019-03-18T04:18:42.653Z,2.07
2019-03-18T04:21:09.226Z,2.43
2019-03-18T04:23:37.748Z,3.77
2019-03-18T04:26:04.715Z,3.03
2019-03-18T04:28:34.036Z,2.37
2019-03-18T04:31:00.562Z,2.40
2019-03-18T04:33:29.291Z,3.53
2019-03-18T04:35:57.759Z,2.13
2019-03-18T04:42:04.169Z,4.60
2019-03-18T04:44:30.715Z,3.50
2019-03-18T04:46:58.842Z,2.50
2019-03-18T04:49:25.825Z,2.63
2019-03-18T04:51:53.242Z,3.63
2019-03-18T04:54:21.606Z,2.77
2019-03-18T05:00:19.960Z,3.93
2019-03-18T05:02:46.516Z,3.23
2019-03-18T05:05:20.378Z,1.73
2019-03-18T05:07:53.229Z,6.07
2019-03-18T05:10:22.298Z,3.13
2019-03-18T05:12:48.935Z,4.33
2019-03-18T05:15:15.588Z,5.63
2019-03-18T05:17:51.160Z,2.70
2019-03-18T05:20:20.243Z,2.17
2019-03-18T05:22:46.781Z,2.97
2019-03-18T05:25:13.428Z,2.67
2019-03-18T05:27:39.991Z,2.53
2019-03-18T05:30:07.015Z,2.47
2019-03-18T05:32:33.634Z,2.30
2019-03-18T05:35:00.371Z,3.03
2019-03-18T05:37:26.871Z,4.13
2019-03-18T05:39:53.380Z,5.67
2019-03-18T05:42:19.862Z,3.23
2019-03-18T05:45:41.328Z,1.60
2019-03-18T05:48:08.477Z,4.13
2019-03-18T05:50:38.433Z,2.70
2019-03-18T05:53:05.007Z,6.10
2019-03-18T05:55:34.550Z,3.77
2019-03-18T05:58:01.159Z,3.73
2019-03-18T06:00:30.679Z,7.77
2019-03-18T06:02:57.502Z,4.63
2019-03-18T06:05:24.015Z,3.50
2019-03-18T06:07:50.558Z,3.53
2019-03-18T06:11:11.937Z,2.87
2019-03-18T06:13:38.507Z,3.77
2019-03-18T06:16:07.089Z,3.70
2019-03-18T06:18:33.708Z,1.53
2019-03-18T06:21:00.840Z,3.93
2019-03-18T06:27:08.198Z,1.97
2019-03-18T06:29:34.854Z,5.90
2019-03-18T06:32:01.392Z,2.90
2019-03-18T06:35:22.792Z,2.87
2019-03-18T06:37:51.886Z,1.87
2019-03-18T06:40:18.399Z,3.30
2019-03-18T06:42:45.006Z,1.73
2019-03-18T06:45:12.009Z,5.77
2019-03-18T06:47:41.726Z,3.20
2019-03-18T06:50:08.406Z,3.50
2019-03-18T06:52:34.892Z,1.83
2019-03-18T06:55:01.497Z,3.57
2019-03-18T06:57:28.490Z,3.50
2019-03-18T06:59:55.032Z,3.00
2019-03-18T07:02:21.626Z,5.73
2019-03-18T07:04:48.242Z,2.37
2019-03-18T07:07:15.170Z,3.43
2019-03-18T07:09:41.715Z,2.20
2019-03-18T07:12:08.293Z,2.27
2019-03-18T07:14:34.972Z,1.53
2019-03-18T07:17:01.957Z,4.87
2019-03-18T07:19:28.469Z,3.37
2019-03-18T07:22:00.751Z,2.57
2019-03-18T07:28:10.284Z,1.70
2019-03-18T07:30:39.680Z,2.50
2019-03-18T07:33:06.584Z,2.70
2019-03-18T07:35:33.470Z,1.77
2019-03-18T07:38:00.697Z,2.00
2019-03-18T07:40:27.944Z,3.70
2019-03-18T07:42:54.806Z,2.67
2019-03-18T07:49:01.592Z,1.03
2019-03-18T07:51:31.665Z,3.50
2019-03-18T07:53:58.720Z,6.57
2019-03-18T07:57:02.158Z,2.70
2019-03-18T07:59:29.767Z,3.60
2019-03-18T08:02:04.998Z,1.30
2019-03-18T08:04:42.325Z,1.33
2019-03-18T08:07:52.233Z,3.10
2019-03-18T08:10:18.802Z,3.60
2019-03-18T08:12:45.442Z,2.40
2019-03-18T08:16:07.474Z,5.10
2019-03-18T08:18:43.042Z,2.10
2019-03-18T08:21:03.188Z,1.67
2019-03-18T08:27:09.907Z,2.57
2019-03-18T08:29:36.496Z,3.07
2019-03-18T08:32:46.872Z,2.87
2019-03-18T08:35:13.488Z,3.57
2019-03-18T08:37:40.065Z,3.33
2019-03-18T08:40:07.354Z,3.30
2019-03-18T08:42:34.154Z,3.07
2019-03-18T08:48:40.516Z,2.03
2019-03-18T08:51:07.100Z,1.70
2019-03-18T08:53:33.690Z,3.30
2019-03-18T08:56:01.481Z,4.07
2019-03-18T08:58:28.072Z,2.60
2019-03-18T09:00:54.790Z,3.60
2019-03-18T09:03:21.335Z,3.40
2019-03-18T09:05:47.969Z,2.47
2019-03-18T09:08:14.828Z,3.90
2019-03-18T09:11:36.534Z,4.37
2019-03-18T09:14:03.678Z,3.63
2019-03-18T09:16:30.292Z,5.97
2019-03-18T09:19:08.151Z,5.17
2019-03-18T09:21:25.857Z,5.20
2019-03-18T09:23:52.654Z,1.93
2019-03-18T09:26:19.457Z,1.90
2019-03-18T09:28:46.037Z,3.97
2019-03-18T09:31:12.869Z,2.80
2019-03-18T09:33:39.592Z,2.90
2019-03-18T09:37:01.147Z,2.40
2019-03-18T09:39:27.644Z,4.13
2019-03-18T09:41:54.252Z,3.07
2019-03-18T09:44:20.873Z,2.43
2019-03-18T09:46:47.504Z,1.43
2019-03-18T09:49:21.558Z,1.43
2019-03-18T09:51:43.000Z,3.87
2019-03-18T09:54:09.682Z,3.07
2019-03-18T09:56:37.128Z,3.13
2019-03-18T09:59:03.873Z,2.73
2019-03-18T10:01:30.683Z,2.17
2019-03-18T10:03:57.658Z,1.90
2019-03-18T10:06:24.248Z,4.90
2019-03-18T10:08:50.845Z,1.57
2019-03-18T10:11:17.426Z,2.50
2019-03-18T10:13:44.069Z,1.37
2019-03-18T10:16:13.354Z,1.57
2019-03-18T10:18:39.992Z,2.77
2019-03-18T10:21:06.749Z,2.77
2019-03-18T10:23:33.604Z,2.20
2019-03-18T10:26:00.130Z,4.60
2019-03-18T10:28:26.849Z,2.50
2019-03-18T10:34:33.829Z,3.20
2019-03-18T10:37:00.833Z,1.90
2019-03-18T10:39:27.601Z,1.50
2019-03-18T10:41:54.283Z,1.97
2019-03-18T10:44:21.310Z,3.87
2019-03-18T10:46:48.061Z,2.07
2019-03-18T10:49:14.584Z,2.37
2019-03-18T10:51:43.178Z,3.43
2019-03-18T10:54:09.931Z,2.60
2019-03-18T10:56:36.551Z,2.97
2019-03-18T10:59:03.292Z,1.43
2019-03-18T11:02:24.990Z,2.20
2019-03-18T11:04:51.694Z,2.37
2019-03-18T11:07:18.375Z,0.80
2019-03-18T11:09:45.385Z,3.17
2019-03-18T11:12:11.943Z,3.07
2019-03-18T11:15:33.916Z,2.27
2019-03-18T11:18:00.836Z,1.40
2019-03-18T11:20:27.528Z,4.63
2019-03-18T11:22:54.756Z,1.77
2019-03-18T11:25:21.358Z,5.27
2019-03-18T11:27:48.400Z,1.80
2019-03-18T11:30:15.244Z,3.37
2019-03-18T11:36:21.815Z,2.40
2019-03-18T11:38:48.607Z,3.53
2019-03-18T11:41:17.386Z,4.87
2019-03-18T11:47:23.660Z,1.93
2019-03-18T11:49:50.499Z,4.83
2019-03-18T11:52:17.115Z,1.47
2019-03-18T11:54:43.974Z,4.87
2019-03-18T11:57:10.703Z,2.60
2019-03-18T11:59:37.362Z,2.37
2019-03-18T12:02:04.352Z,1.40
2019-03-18T12:04:32.833Z,4.03
2019-03-18T12:06:59.519Z,4.30
2019-03-18T12:09:26.090Z,3.80
2019-03-18T12:11:52.862Z,4.77
2019-03-18T12:14:19.615Z,5.50
2019-03-18T12:16:46.281Z,3.13
2019-03-18T12:19:12.896Z,2.57
2019-03-18T12:21:39.569Z,4.13
2019-03-18T12:24:06.309Z,3.20
2019-03-18T12:26:32.929Z,2.93
2019-03-18T12:28:59.508Z,2.80
2019-03-18T12:31:26.067Z,3.47
2019-03-18T12:33:52.734Z,3.10
2019-03-18T12:36:19.419Z,2.93
2019-03-18T12:38:46.279Z,1.67
2019-03-18T12:41:12.815Z,3.93
2019-03-18T12:43:39.551Z,1.93
2019-03-18T12:46:06.705Z,2.27
2019-03-18T12:48:33.296Z,3.03
2019-03-18T12:52:13.254Z,2.17
2019-03-18T12:54:39.929Z,1.27
2019-03-18T12:57:06.535Z,3.80
2019-03-18T12:59:33.895Z,2.00
2019-03-18T13:02:01.041Z,2.73
2019-03-18T13:08:08.261Z,2.67
2019-03-18T13:10:34.910Z,4.20
2019-03-18T13:13:01.676Z,4.97
2019-03-18T13:15:29.312Z,3.30
2019-03-18T13:17:56.411Z,0.80
2019-03-18T13:20:23.130Z,3.47
2019-03-18T13:22:52.347Z,2.07
2019-03-18T13:26:13.650Z,2.63
2019-03-18T13:28:40.373Z,2.90
2019-03-18T13:31:07.080Z,2.77
2019-03-18T13:33:33.588Z,3.70
2019-03-18T13:36:55.186Z,4.43
2019-03-18T13:39:21.787Z,2.40
2019-03-18T13:41:48.432Z,3.50
2019-03-18T13:44:15.205Z,1.83
2019-03-18T13:47:01.868Z,2.87
2019-03-18T13:49:30.275Z,3.97
2019-03-18T13:51:56.821Z,1.97
2019-03-18T13:54:23.844Z,1.87
2019-03-18T13:56:51.791Z,4.97
2019-03-18T13:59:18.424Z,2.87
2019-03-18T14:01:45.014Z,4.13
2019-03-18T14:04:11.680Z,3.20
2019-03-18T14:06:57.827Z,2.83
2019-03-18T14:10:19.791Z,3.13
2019-03-18T14:16:26.826Z,6.33
2019-03-18T14:18:55.431Z,5.43
2019-03-18T14:21:32.790Z,3.83
2019-03-18T14:23:50.753Z,4.63
2019-03-18T14:26:17.293Z,3.13
2019-03-18T14:29:39.222Z,3.30
2019-03-18T14:32:06.840Z,5.23
2019-03-18T14:34:34.158Z,3.53
2019-03-18T14:37:01.467Z,3.83
2019-03-18T14:39:30.741Z,3.97
2019-03-18T14:42:01.346Z,4.40
2019-03-18T14:48:09.505Z,3.07
2019-03-18T14:51:46.953Z,2.17
2019-03-18T14:54:13.854Z,2.50
2019-03-18T14:56:46.915Z,6.50
2019-03-18T14:59:13.510Z,1.57
2019-03-18T15:01:41.708Z,3.43
2019-03-18T15:04:08.566Z,3.77
2019-03-18T15:06:45.036Z,4.20
2019-03-18T15:09:13.193Z,3.33
2019-03-18T15:11:40.870Z,5.53
2019-03-18T15:15:02.290Z,2.13
2019-03-18T15:21:09.407Z,2.73
2019-03-18T15:23:36.383Z,1.97
2019-03-18T15:26:05.195Z,4.50
2019-03-18T15:28:32.756Z,2.23
2019-03-18T15:31:13.469Z,4.43
2019-03-18T15:33:40.114Z,1.47
2019-03-18T15:36:06.699Z,1.47
2019-03-18T15:38:33.271Z,3.27
2019-03-18T15:40:59.922Z,4.10
2019-03-18T15:43:26.512Z,3.00
2019-03-18T15:45:53.074Z,2.70
2019-03-18T15:52:10.343Z,2.33
2019-03-18T15:54:29.065Z,1.87
2019-03-18T15:56:55.781Z,5.13
2019-03-18T16:00:17.992Z,1.60
2019-03-18T16:02:44.729Z,4.30
2019-03-18T16:06:04.319Z,4.83
2019-03-18T16:08:30.975Z,3.17
2019-03-18T16:10:58.068Z,4.33
2019-03-18T16:13:24.718Z,2.73
2019-03-18T16:16:02.146Z,2.57
2019-03-18T16:18:28.755Z,3.20
2019-03-18T16:20:55.910Z,3.23
2019-03-18T16:27:03.963Z,4.33
2019-03-18T16:29:32.335Z,3.60
2019-03-18T16:32:10.529Z,4.73
2019-03-18T16:34:27.548Z,3.70
2019-03-18T16:36:54.152Z,7.03
2019-03-18T16:39:20.803Z,6.60
2019-03-18T16:42:42.497Z,4.63
2019-03-18T16:45:10.482Z,4.40
2019-03-18T16:47:37.143Z,3.27
2019-03-18T16:50:25.135Z,3.10
2019-03-18T16:52:51.810Z,4.43
2019-03-18T16:55:18.563Z,8.40
2019-03-18T16:57:45.199Z,6.07
2019-03-18T17:00:14.346Z,4.57
2019-03-18T17:03:36.249Z,4.17
2019-03-18T17:06:03.215Z,6.97
2019-03-18T17:08:30.190Z,4.27
2019-03-18T17:10:56.864Z,10.67
2019-03-18T17:17:03.987Z,5.00
2019-03-18T17:20:18.999Z,7.10
2019-03-18T17:26:26.201Z,6.33
2019-03-18T17:28:52.923Z,19.93
2019-03-18T17:31:19.880Z,2.97
2019-03-18T17:33:46.977Z,4.70
2019-03-18T17:36:15.088Z,6.37
2019-03-18T17:38:41.660Z,3.77
2019-03-18T17:41:09.328Z,2.37
2019-03-18T17:43:36.234Z,5.57
2019-03-18T17:46:03.038Z,5.33
2019-03-18T17:48:29.553Z,5.50
2019-03-18T17:50:56.109Z,4.83
2019-03-18T17:53:23.797Z,4.93
2019-03-18T17:55:50.574Z,3.87
2019-03-18T17:58:21.022Z,4.23
2019-03-18T18:00:49.871Z,5.17
2019-03-18T18:03:16.888Z,7.00
2019-03-18T18:05:43.406Z,7.23
2019-03-18T18:08:10.055Z,6.23
2019-03-18T18:10:36.793Z,5.80
2019-03-18T18:13:03.589Z,5.33
2019-03-18T18:19:10.550Z,8.40
2019-03-18T18:21:37.274Z,13.67
2019-03-18T18:24:03.954Z,8.80
2019-03-18T18:26:30.725Z,6.17
2019-03-18T18:28:57.354Z,7.07
2019-03-18T18:31:24.013Z,7.23
2019-03-18T18:33:50.929Z,5.37
2019-03-18T18:36:17.675Z,6.53
2019-03-18T18:38:44.476Z,3.77
2019-03-18T18:41:13.854Z,5.73
2019-03-18T18:43:42.525Z,8.80
2019-03-18T18:46:09.607Z,4.60
2019-03-18T18:48:36.202Z,12.87
2019-03-18T18:51:03.089Z,4.03
2019-03-18T18:53:29.629Z,6.70
2019-03-18T18:55:57.224Z,5.70
2019-03-18T18:58:23.878Z,6.43
2019-03-18T19:01:23.413Z,10.03
2019-03-18T19:03:50.012Z,9.53
2019-03-18T19:09:56.457Z,8.27
2019-03-18T19:16:04.078Z,8.17
2019-03-18T19:22:10.792Z,9.17
2019-03-18T19:24:37.442Z,6.80
2019-03-18T19:27:04.172Z,8.33
2019-03-18T19:29:30.827Z,9.27
2019-03-18T19:31:57.867Z,6.00
2019-03-18T19:34:24.491Z,5.47
2019-03-18T19:36:51.258Z,7.57
2019-03-18T19:39:17.852Z,7.57
2019-03-18T19:42:39.325Z,6.23
2019-03-18T19:45:07.171Z,10.00
2019-03-18T19:47:33.922Z,7.53
2019-03-18T19:50:00.811Z,7.03
2019-03-18T19:52:27.511Z,7.90
2019-03-18T19:54:54.360Z,8.77
2019-03-18T19:57:21.486Z,9.03
2019-03-18T19:59:55.327Z,10.53
2019-03-18T20:02:23.693Z,7.73
2019-03-18T20:05:02.539Z,7.80
2019-03-18T20:11:09.871Z,8.30
2019-03-18T20:17:16.454Z,6.73
2019-03-18T20:19:43.135Z,5.67
2019-03-18T20:22:09.731Z,9.87
2019-03-18T20:25:03.888Z,6.37
2019-03-18T20:27:30.488Z,12.00
2019-03-18T20:29:57.377Z,8.00
2019-03-18T20:32:23.951Z,5.23
2019-03-18T20:34:50.784Z,5.17
2019-03-18T20:38:12.329Z,8.23
2019-03-18T20:40:39.273Z,6.27
2019-03-18T20:43:06.406Z,10.27
2019-03-18T20:45:33.210Z,6.87
2019-03-18T20:47:59.935Z,7.47
2019-03-18T20:50:26.456Z,6.27
2019-03-18T20:52:52.940Z,7.70
2019-03-18T20:56:00.755Z,6.30
2019-03-18T20:58:24.960Z,7.00
2019-03-18T21:00:53.473Z,6.17
2019-03-18T21:04:14.768Z,11.00
2019-03-18T21:06:41.392Z,7.63
2019-03-18T21:10:02.970Z,6.97
2019-03-18T21:13:17.050Z,5.17
2019-03-18T21:15:43.794Z,4.10
2019-03-18T21:18:10.593Z,7.30
2019-03-18T21:21:32.488Z,6.03
2019-03-18T21:23:59.306Z,11.20
2019-03-18T21:26:26.009Z,4.73
2019-03-18T21:28:52.509Z,3.33
2019-03-18T21:34:59.332Z,5.33
2019-03-18T21:38:08.404Z,6.67
2019-03-18T21:44:17.727Z,7.63
2019-03-18T21:46:44.673Z,6.63
2019-03-18T21:49:24.712Z,5.20
2019-03-18T21:55:33.035Z,5.57
2019-03-18T21:58:03.065Z,7.63
2019-03-18T22:00:32.089Z,6.70
2019-03-18T22:03:05.135Z,5.40
2019-03-18T22:05:51.464Z,6.33
2019-03-18T22:11:07.265Z,7.93
2019-03-18T22:17:13.824Z,6.07
2019-03-18T22:19:40.712Z,4.67
2019-03-18T22:23:02.277Z,9.47
2019-03-18T22:25:34.743Z,5.53
2019-03-18T22:28:01.913Z,8.67
2019-03-18T22:34:09.605Z,6.57
2019-03-18T22:36:36.447Z,5.33
2019-03-18T22:39:06.463Z,3.60
2019-03-18T22:42:27.710Z,6.37
2019-03-18T22:48:34.307Z,8.43
2019-03-18T22:51:01.260Z,11.63
2019-03-18T22:54:23.081Z,6.70
2019-03-18T22:56:50.048Z,9.90
2019-03-18T22:59:16.741Z,5.97
2019-03-18T23:01:43.444Z,9.73
2019-03-18T23:04:10.025Z,9.37
2019-03-18T23:06:36.998Z,8.10
2019-03-18T23:09:58.656Z,5.70
2019-03-18T23:12:25.184Z,5.77
2019-03-18T23:14:52.054Z,2.63
2019-03-18T23:18:14.264Z,8.37
2019-03-18T23:20:41.037Z,6.27
2019-03-18T23:26:48.885Z,7.43
2019-03-18T23:29:15.747Z,5.67
2019-03-18T23:31:44.510Z,9.07
2019-03-18T23:37:51.654Z,4.93
2019-03-18T23:40:18.503Z,7.10
2019-03-18T23:42:45.029Z,7.73
2019-03-18T23:45:12.126Z,7.57
2019-03-18T23:47:41.616Z,6.87
2019-03-18T23:53:48.270Z,3.00
2019-03-18T23:56:14.937Z,4.37
2019-03-18T23:58:41.869Z,7.40
